Home > Products > Valid Products > TAF

000
FTUS46 KSGX 280329 AAA
TAFSAN
TAF AMD
KSAN 280329Z 2803/2906 VRB03KT P6SM FEW150
     FM281200 18005KT P6SM SCT009
     FM281600 19005KT P6SM FEW015
     FM282000 26009KT P6SM SKC
     FM290300 VRB04KT P6SM FEW010=



000
FTUS46 KSGX 280329 AAA
TAFSAN
TAF AMD
KSAN 280329Z 2803/2906 VRB03KT P6SM FEW150
     FM281200 18005KT P6SM SCT009
     FM281600 19005KT P6SM FEW015
     FM282000 26009KT P6SM SKC
     FM290300 VRB04KT P6SM FEW010=



000
FTUS46 KSGX 272329
TAFONT
TAF
KONT 272329Z 2800/2906 26012KT P6SM FEW100
     FM280400 VRB05KT P6SM SKC
     FM282000 26012KT P6SM SCT100
     FM290400 VRB05KT P6SM SKC=



000
FTUS46 KSGX 272329
TAFPSP
TAF
KPSP 272329Z 2800/2824 13010KT P6SM SCT100
     FM280300 VRB06KT P6SM SKC
     FM281900 14008KT P6SM SKC=



000
FTUS46 KSGX 272329
TAFSAN
TAF
KSAN 272329Z 2800/2906 32007KT P6SM FEW150
     FM280400 VRB04KT P6SM FEW010
     FM281200 18005KT P6SM SCT009
     FM281600 19005KT P6SM FEW015
     FM282000 26009KT P6SM SKC
     FM290300 VRB04KT P6SM FEW010=



000
FTUS46 KSGX 272329
TAFONT
TAF
KONT 272329Z 2800/2906 26012KT P6SM FEW100
     FM280400 VRB05KT P6SM SKC
     FM282000 26012KT P6SM SCT100
     FM290400 VRB05KT P6SM SKC=



000
FTUS46 KSGX 272329
TAFCRQ
TAF
KCRQ 272329Z 2800/2824 25007KT P6SM FEW150
     FM280200 VRB04KT P6SM SKC
     FM281100 VRB04KT 5SM HZ SCT005
     FM281900 25008KT P6SM SKC=



000
FTUS46 KSGX 272329
TAFSNA
TAF
KSNA 272329Z 2800/2824 23007KT P6SM FEW150
     FM280300 VRB04KT P6SM SKC
     FM281300 VRB03KT P6SM SCT009
     FM281600 VRB03KT P6SM FEW011
     FM282000 22010KT P6SM SKC=



000
FTUS46 KSGX 272329
TAFTRM
TAF
KTRM 272329Z 2800/2824 14009KT P6SM SCT100
     FM280400 VRB06KT P6SM SKC
     FM282000 14010KT P6SM SKC=



000
FTUS46 KSGX 272329
TAFTRM
TAF
KTRM 272329Z 2800/2824 14009KT P6SM SCT100
     FM280400 VRB06KT P6SM SKC
     FM282000 14010KT P6SM SKC=



000
FTUS46 KSGX 272329
TAFCRQ
TAF
KCRQ 272329Z 2800/2824 25007KT P6SM FEW150
     FM280200 VRB04KT P6SM SKC
     FM281100 VRB04KT 5SM HZ SCT005
     FM281900 25008KT P6SM SKC=



000
FTUS46 KSGX 272329
TAFSAN
TAF
KSAN 272329Z 2800/2906 32007KT P6SM FEW150
     FM280400 VRB04KT P6SM FEW010
     FM281200 18005KT P6SM SCT009
     FM281600 19005KT P6SM FEW015
     FM282000 26009KT P6SM SKC
     FM290300 VRB04KT P6SM FEW010=



000
FTUS46 KSGX 272329
TAFSNA
TAF
KSNA 272329Z 2800/2824 23007KT P6SM FEW150
     FM280300 VRB04KT P6SM SKC
     FM281300 VRB03KT P6SM SCT009
     FM281600 VRB03KT P6SM FEW011
     FM282000 22010KT P6SM SKC=



000
FTUS46 KSGX 272329
TAFPSP
TAF
KPSP 272329Z 2800/2824 13010KT P6SM SCT100
     FM280300 VRB06KT P6SM SKC
     FM281900 14008KT P6SM SKC=



000
FTUS46 KSGX 272029 AAA
TAFSAN
TAF AMD
KSAN 272029Z 2720/2824 32009KT P6SM SKC
     FM280200 22005KT P6SM SKC
     FM281100 18005KT P6SM BKN011
     FM281600 19005KT P6SM SCT015
     FM281900 27009KT P6SM SKC=



000
FTUS46 KSGX 271737
TAFCRQ
TAF
KCRQ 271737Z 2718/2818 25008KT P6SM SKC
     FM280200 VRB04KT P6SM SKC
     FM281100 VRB04KT 5SM HZ BKN005
     FM281700 VRB05KT P6SM SCT007=



000
FTUS46 KSGX 271737
TAFONT
TAF
KONT 271737Z 2718/2824 VRB04KT P6SM SKC
     FM272000 26012KT P6SM SCT100
     FM280400 VRB04KT P6SM SKC
     FM281900 26012KT P6SM SCT100=



000
FTUS46 KSGX 271737
TAFTRM
TAF
KTRM 271737Z 2718/2818 VRB06KT P6SM SKC
     FM271900 14009KT P6SM SCT090
     FM280400 32007KT P6SM SKC=



000
FTUS46 KSGX 271737
TAFSAN
TAF
KSAN 271737Z 2718/2824 VRB03KT P6SM SKC
     FM271900 27009KT P6SM SKC
     FM280200 22005KT P6SM SKC
     FM281100 18005KT P6SM BKN011
     FM281600 19005KT P6SM SCT015
     FM281900 27009KT P6SM SKC=



000
FTUS46 KSGX 271737
TAFSNA
TAF
KSNA 271737Z 2718/2818 VRB03KT P6SM SKC
     FM271900 22009KT P6SM SKC
     FM280300 VRB04KT P6SM SKC
     FM281300 VRB05KT P6SM BKN009
     FM281600 VRB05KT P6SM BKN011
     FM281700 VRB05KT P6SM SCT010=



000
FTUS46 KSGX 271737
TAFPSP
TAF
KPSP 271737Z 2718/2818 VRB05KT P6SM SKC
     FM272000 12008KT P6SM SCT090
     FM280200 32008KT P6SM SKC
     FM280700 VRB05KT P6SM SKC=



000
FTUS46 KSGX 271439 AAA
TAFSAN
TAF AMD
KSAN 271439Z 2715/2818 VRB03KT P6SM SCT010
     FM271900 27009KT P6SM SKC
     FM280200 22005KT P6SM SKC
     FM281100 18005KT P6SM BKN015
     FM281500 19005KT P6SM SCT018=



000
FTUS46 KSGX 271439 AAA
TAFSAN
TAF AMD
KSAN 271439Z 2715/2818 VRB03KT P6SM SCT010
     FM271900 27009KT P6SM SKC
     FM280200 22005KT P6SM SKC
     FM281100 18005KT P6SM BKN015
     FM281500 19005KT P6SM SCT018=



000
FTUS46 KSGX 271123
TAFCRQ
TAF
KCRQ 271123Z 2712/2812 VRB04KT P6SM SKC
      TEMPO 2712/2715 4SM BR BKN005
     FM271900 25008KT P6SM SKC
     FM280200 VRB04KT P6SM SKC
     FM281100 VRB04KT P6SM BKN005=



000
FTUS46 KSGX 271123
TAFSAN
TAF
KSAN 271123Z 2712/2818 VRB03KT P6SM SCT010
      TEMPO 2712/2715 BKN008
     FM271900 27009KT P6SM SKC
     FM280200 22005KT P6SM SKC
     FM281100 18005KT P6SM BKN015
     FM281500 19005KT P6SM SCT018=



000
FTUS46 KSGX 271123
TAFPSP
TAF
KPSP 271123Z 2712/2812 VRB05KT P6SM SKC
     FM272000 12008KT P6SM SCT090
     FM280200 32008KT P6SM SKC
     FM280700 VRB05KT P6SM SKC=



000
FTUS46 KSGX 271123
TAFSNA
TAF
KSNA 271123Z 2712/2812 VRB03KT P6SM SKC
     FM271900 22009KT P6SM SKC
     FM280300 VRB04KT P6SM SKC=



000
FTUS46 KSGX 271123
TAFPSP
TAF
KPSP 271123Z 2712/2812 VRB05KT P6SM SKC
     FM272000 12008KT P6SM SCT090
     FM280200 32008KT P6SM SKC
     FM280700 VRB05KT P6SM SKC=



000
FTUS46 KSGX 271123
TAFONT
TAF
KONT 271123Z 2712/2818 VRB04KT P6SM SKC
     FM272000 26012KT P6SM SCT100
     FM280400 VRB04KT P6SM SKC=



000
FTUS46 KSGX 271123
TAFCRQ
TAF
KCRQ 271123Z 2712/2812 VRB04KT P6SM SKC
      TEMPO 2712/2715 4SM BR BKN005
     FM271900 25008KT P6SM SKC
     FM280200 VRB04KT P6SM SKC
     FM281100 VRB04KT P6SM BKN005=



000
FTUS46 KSGX 271123
TAFTRM
TAF
KTRM 271123Z 2712/2812 VRB06KT P6SM SKC
     FM271900 14009KT P6SM SCT090
     FM280400 32007KT P6SM SKC=



000
FTUS46 KSGX 271123
TAFTRM
TAF
KTRM 271123Z 2712/2812 VRB06KT P6SM SKC
     FM271900 14009KT P6SM SCT090
     FM280400 32007KT P6SM SKC=



000
FTUS46 KSGX 271123
TAFONT
TAF
KONT 271123Z 2712/2818 VRB04KT P6SM SKC
     FM272000 26012KT P6SM SCT100
     FM280400 VRB04KT P6SM SKC=



000
FTUS46 KSGX 271123
TAFSAN
TAF
KSAN 271123Z 2712/2818 VRB03KT P6SM SCT010
      TEMPO 2712/2715 BKN008
     FM271900 27009KT P6SM SKC
     FM280200 22005KT P6SM SKC
     FM281100 18005KT P6SM BKN015
     FM281500 19005KT P6SM SCT018=



000
FTUS46 KSGX 271123
TAFSNA
TAF
KSNA 271123Z 2712/2812 VRB03KT P6SM SKC
     FM271900 22009KT P6SM SKC
     FM280300 VRB04KT P6SM SKC=



000
FTUS46 KSGX 270908 AAA
TAFSAN
TAF AMD
KSAN 270908Z 2709/2812 VRB04KT P6SM SCT010
      TEMPO 2712/2714 BKN008
     FM272000 27009KT P6SM SKC
     FM280200 26005KT P6SM SCT015
     FM281100 VRB03KT P6SM BKN015=



000
FTUS46 KSGX 270520
TAFPSP
TAF
KPSP 270520Z 2706/2806 31007KT P6SM SKC
     FM270800 VRB05KT P6SM SKC
     FM272100 12008KT P6SM SCT080
     FM280200 32008KT P6SM SKC=



000
FTUS46 KSGX 270520
TAFCRQ
TAF
KCRQ 270520Z 2706/2806 22003KT P6SM SKC
     FM271100 VRB04KT P6SM BKN006
      TEMPO 2712/2716 4SM BR BKN004
     FM271600 VRB05KT 6SM HZ SCT008
     FM272000 27008KT P6SM SKC
     FM280200 27005KT P6SM SKC=



000
FTUS46 KSGX 270520
TAFSNA
TAF
KSNA 270520Z 2706/2806 19005KT P6SM FEW220
     FM271100 VRB04KT P6SM SCT007
     FM271600 VRB05KT P6SM SCT010
     FM272000 27008KT P6SM SKC
     FM280200 VRB05KT P6SM SKC=



000
FTUS46 KSGX 270520
TAFTRM
TAF
KTRM 270520Z 2706/2806 34006KT P6SM SKC
     FM271000 VRB06KT P6SM SKC
     FM271800 14007KT P6SM SCT080
     FM280400 32007KT P6SM SKC=



000
FTUS46 KSGX 270520
TAFTRM
TAF
KTRM 270520Z 2706/2806 34006KT P6SM SKC
     FM271000 VRB06KT P6SM SKC
     FM271800 14007KT P6SM SCT080
     FM280400 32007KT P6SM SKC=



000
FTUS46 KSGX 270520
TAFONT
TAF
KONT 270520Z 2706/2812 23006KT P6SM SCT180 SCT250
     FM272000 26011KT P6SM SKC
     FM280400 26004KT P6SM SKC=



000
FTUS46 KSGX 270520
TAFSNA
TAF
KSNA 270520Z 2706/2806 19005KT P6SM FEW220
     FM271100 VRB04KT P6SM SCT007
     FM271600 VRB05KT P6SM SCT010
     FM272000 27008KT P6SM SKC
     FM280200 VRB05KT P6SM SKC=



000
FTUS46 KSGX 270520
TAFSAN
TAF
KSAN 270520Z 2706/2812 00000KT P6SM FEW010
     FM271100 VRB04KT P6SM BKN008
     FM271600 VRB04KT P6SM FEW009
     FM272000 27009KT P6SM SKC
     FM280200 26005KT P6SM SCT015
     FM281100 VRB03KT P6SM BKN015=



000
FTUS46 KSGX 270520
TAFSAN
TAF
KSAN 270520Z 2706/2812 00000KT P6SM FEW010
     FM271100 VRB04KT P6SM BKN008
     FM271600 VRB04KT P6SM FEW009
     FM272000 27009KT P6SM SKC
     FM280200 26005KT P6SM SCT015
     FM281100 VRB03KT P6SM BKN015=



000
FTUS46 KSGX 270520
TAFCRQ
TAF
KCRQ 270520Z 2706/2806 22003KT P6SM SKC
     FM271100 VRB04KT P6SM BKN006
      TEMPO 2712/2716 4SM BR BKN004
     FM271600 VRB05KT 6SM HZ SCT008
     FM272000 27008KT P6SM SKC
     FM280200 27005KT P6SM SKC=



000
FTUS46 KSGX 270520
TAFONT
TAF
KONT 270520Z 2706/2812 23006KT P6SM SCT180 SCT250
     FM272000 26011KT P6SM SKC
     FM280400 26004KT P6SM SKC=



000
FTUS46 KSGX 270520
TAFPSP
TAF
KPSP 270520Z 2706/2806 31007KT P6SM SKC
     FM270800 VRB05KT P6SM SKC
     FM272100 12008KT P6SM SCT080
     FM280200 32008KT P6SM SKC=



000
FTUS46 KSGX 270314 AAA
TAFSAN
TAF AMD
KSAN 270314Z 2703/2806 29004KT P6SM FEW010 SCT200
     FM270900 VRB04KT P6SM BKN008
     FM271600 VRB04KT P6SM FEW009
     FM272000 27009KT P6SM SKC
     FM280200 26005KT P6SM SCT018=



000
FTUS46 KSGX 262320
TAFTRM
TAF
KTRM 262320Z 2700/2724 19006KT P6SM SKC
     FM270400 33009KT P6SM FEW150
     FM271000 VRB06KT P6SM SKC
     FM271800 14007KT P6SM SKC=



000
FTUS46 KSGX 262320
TAFCRQ
TAF
KCRQ 262320Z 2700/2724 27005KT P6SM SKC
     FM271100 VRB04KT P6SM BKN007
      TEMPO 2712/2716 4SM BR BKN004
     FM271600 VRB05KT 6SM HZ SCT008
     FM272000 27008KT P6SM SKC=



000
FTUS46 KSGX 262320
TAFPSP
TAF
KPSP 262320Z 2700/2724 16006KT P6SM SCT130
     FM270200 32007KT P6SM SCT150
     FM270800 VRB05KT P6SM SKC
     FM272100 12008KT P6SM SKC=



000
FTUS46 KSGX 262320
TAFONT
TAF
KONT 262320Z 2700/2806 29012KT P6SM FEW080 FEW150 SCT200
     FM270400 VRB05KT P6SM SCT150
     FM272000 26011KT P6SM SKC
     FM280400 26004KT P6SM SKC=



000
FTUS46 KSGX 262320
TAFSNA
TAF
KSNA 262320Z 2700/2724 26006KT P6SM FEW040 SCT150 SCT250
     FM270200 VRB05KT P6SM SKC
     FM271100 VRB04KT P6SM BKN007
     FM271600 VRB05KT P6SM SCT010
     FM272000 27008KT P6SM SKC=



000
FTUS46 KSGX 262320
TAFSAN
TAF
KSAN 262320Z 2700/2806 30006KT P6SM SCT150 SCT200
     FM270200 VRB05KT P6SM FEW010
     FM271100 VRB04KT P6SM BKN008
     FM271600 VRB04KT P6SM FEW009
     FM272000 27009KT P6SM SKC
     FM280200 26005KT P6SM SCT018=



000
FTUS46 KSGX 262041 AAA
TAFSAN
TAF AMD
KSAN 262041Z 2621/2724 28009KT P6SM FEW015 SCT200
     FM270200 VRB05KT P6SM FEW010
     FM270800 VRB04KT P6SM BKN008
     FM271600 VRB04KT P6SM FEW009
     FM272030 27009KT P6SM SKC=



000
FTUS46 KSGX 262041 AAA
TAFSAN
TAF AMD
KSAN 262041Z 2621/2724 28009KT P6SM FEW015 SCT200
     FM270200 VRB05KT P6SM FEW010
     FM270800 VRB04KT P6SM BKN008
     FM271600 VRB04KT P6SM FEW009
     FM272030 27009KT P6SM SKC=



000
FTUS46 KSGX 261720
TAFPSP
TAF
KPSP 261720Z 2618/2718 12008KT P6SM VCTS SCT100CB SCT150
     FM270200 VRB06KT P6SM SCT150=



000
FTUS46 KSGX 261720
TAFCRQ
TAF
KCRQ 261720Z 2618/2718 VRB05KT P6SM FEW200
     FM262000 25009KT P6SM FEW200
     FM270200 VRB05KT P6SM SKC
     FM270800 VRB04KT P6SM BKN007
      TEMPO 2711/2715 4SM BR OVC003
     FM271600 VRB05KT 6SM HZ FEW009=



000
FTUS46 KSGX 261720
TAFCRQ
TAF
KCRQ 261720Z 2618/2718 VRB05KT P6SM FEW200
     FM262000 25009KT P6SM FEW200
     FM270200 VRB05KT P6SM SKC
     FM270800 VRB04KT P6SM BKN007
      TEMPO 2711/2715 4SM BR OVC003
     FM271600 VRB05KT 6SM HZ FEW009=



000
FTUS46 KSGX 261720
TAFPSP
TAF
KPSP 261720Z 2618/2718 12008KT P6SM VCTS SCT100CB SCT150
     FM270200 VRB06KT P6SM SCT150=



000
FTUS46 KSGX 261720
TAFSNA
TAF
KSNA 261720Z 2618/2718 VRB04KT P6SM FEW010 SCT150
     FM262000 22009KT P6SM SCT150
     FM270300 VRB05KT P6SM SKC
     FM270900 VRB04KT P6SM BKN007
     FM271630 VRB05KT P6SM SCT010=



000
FTUS46 KSGX 261720
TAFTRM
TAF
KTRM 261720Z 2618/2718 14010KT P6SM SCT100 SCT150
     FM270400 33009KT P6SM FEW150
     FM271000 VRB06KT P6SM SKC=



000
FTUS46 KSGX 261720
TAFSAN
TAF
KSAN 261720Z 2618/2724 22005KT P6SM FEW008 SCT010 SCT200
     FM262000 28009KT P6SM SCT200
     FM270200 VRB05KT P6SM FEW010
     FM270800 VRB04KT P6SM BKN008
     FM271600 VRB04KT P6SM FEW009
     FM272030 27009KT P6SM SKC=



000
FTUS46 KSGX 261720
TAFTRM
TAF
KTRM 261720Z 2618/2718 14010KT P6SM SCT100 SCT150
     FM270400 33009KT P6SM FEW150
     FM271000 VRB06KT P6SM SKC=



000
FTUS46 KSGX 261720
TAFSNA
TAF
KSNA 261720Z 2618/2718 VRB04KT P6SM FEW010 SCT150
     FM262000 22009KT P6SM SCT150
     FM270300 VRB05KT P6SM SKC
     FM270900 VRB04KT P6SM BKN007
     FM271630 VRB05KT P6SM SCT010=



000
FTUS46 KSGX 261720
TAFONT
TAF
KONT 261720Z 2618/2724 VRB05KT P6SM BKN200
     FM262000 26012G18KT P6SM SCT090 SCT150
     FM270400 VRB05KT P6SM SCT150
     FM272000 26011KT P6SM SKC=



000
FTUS46 KSGX 261720
TAFONT
TAF
KONT 261720Z 2618/2724 VRB05KT P6SM BKN200
     FM262000 26012G18KT P6SM SCT090 SCT150
     FM270400 VRB05KT P6SM SCT150
     FM272000 26011KT P6SM SKC=



000
FTUS46 KSGX 261720
TAFSAN
TAF
KSAN 261720Z 2618/2724 22005KT P6SM FEW008 SCT010 SCT200
     FM262000 28009KT P6SM SCT200
     FM270200 VRB05KT P6SM FEW010
     FM270800 VRB04KT P6SM BKN008
     FM271600 VRB04KT P6SM FEW009
     FM272030 27009KT P6SM SKC=



000
FTUS46 KSGX 261458 AAA
TAFSNA
TAF AMD
KSNA 261458Z 2615/2712 VRB04KT P6SM SCT010 SCT200
     FM262000 22009KT P6SM SCT150
     FM270300 VRB05KT P6SM SKC
     FM271100 VRB04KT P6SM BKN007=



000
FTUS46 KSGX 261458 AAA
TAFSNA
TAF AMD
KSNA 261458Z 2615/2712 VRB04KT P6SM SCT010 SCT200
     FM262000 22009KT P6SM SCT150
     FM270300 VRB05KT P6SM SKC
     FM271100 VRB04KT P6SM BKN007=



000
FTUS46 KSGX 261453 AAA
TAFSAN
TAF AMD
KSAN 261453Z 2615/2718 VRB04KT 5SM BR OVC008
     FM261630 22005KT P6SM SCT009 SCT200
     FM262000 28009KT P6SM SCT100 SCT150
     FM270200 VRB05KT P6SM SKC
     FM270800 VRB04KT P6SM BKN007
     FM271600 VRB04KT P6SM SCT009=



000
FTUS46 KSGX 261453 AAA
TAFSAN
TAF AMD
KSAN 261453Z 2615/2718 VRB04KT 5SM BR OVC008
     FM261630 22005KT P6SM SCT009 SCT200
     FM262000 28009KT P6SM SCT100 SCT150
     FM270200 VRB05KT P6SM SKC
     FM270800 VRB04KT P6SM BKN007
     FM271600 VRB04KT P6SM SCT009=



000
FTUS46 KSGX 261124
TAFPSP
TAF
KPSP 261124Z 2612/2712 VRB05KT P6SM BKN200
     FM261800 11008KT P6SM VCTS SCT100CB SCT150
     FM270200 33009KT P6SM SCT150
     FM270600 VRB05KT P6SM SKC=



000
FTUS46 KSGX 261124
TAFSNA
TAF
KSNA 261124Z 2612/2712 VRB04KT P6SM SCT007 SCT200
      TEMPO 2612/2615 5SM BR BKN006
     FM262000 22009KT P6SM SCT150
     FM270300 VRB05KT P6SM SKC
     FM271100 VRB04KT P6SM BKN007=



000
FTUS46 KSGX 261124
TAFONT
TAF
KONT 261124Z 2612/2718 VRB04KT P6SM BKN200
     FM262000 26012KT P6SM SCT090 SCT150
     FM270400 VRB05KT P6SM SKC=



000
FTUS46 KSGX 261124
TAFTRM
TAF
KTRM 261124Z 2612/2712 VRB05KT P6SM BKN200
     FM261800 11010KT P6SM SCT100 SCT150
     FM270400 33007KT P6SM SKC=



000
FTUS46 KSGX 261124
TAFSAN
TAF
KSAN 261124Z 2612/2718 VRB04KT P6SM SCT006 BKN008
      TEMPO 2612/2615 5SM BR BKN006
     FM261630 22005KT P6SM SCT009 SCT200
     FM262000 28009KT P6SM SCT100 SCT150
     FM270200 VRB05KT P6SM SKC
     FM270800 VRB04KT P6SM BKN007
     FM271600 VRB04KT P6SM SCT009=



000
FTUS46 KSGX 261124
TAFCRQ
TAF
KCRQ 261124Z 2612/2712 VRB04KT 5SM BR BKN004
     FM261630 22005KT P6SM SCT007 SCT200
     FM262000 25008KT P6SM SCT100 SCT150
     FM270200 VRB05KT P6SM SKC
     FM270800 VRB04KT P6SM BKN007=



000
FTUS46 KSGX 261124
TAFSAN
TAF
KSAN 261124Z 2612/2718 VRB04KT P6SM SCT006 BKN008
      TEMPO 2612/2615 5SM BR BKN006
     FM261630 22005KT P6SM SCT009 SCT200
     FM262000 28009KT P6SM SCT100 SCT150
     FM270200 VRB05KT P6SM SKC
     FM270800 VRB04KT P6SM BKN007
     FM271600 VRB04KT P6SM SCT009=



000
FTUS46 KSGX 261124
TAFONT
TAF
KONT 261124Z 2612/2718 VRB04KT P6SM BKN200
     FM262000 26012KT P6SM SCT090 SCT150
     FM270400 VRB05KT P6SM SKC=



000
FTUS46 KSGX 261124
TAFSNA
TAF
KSNA 261124Z 2612/2712 VRB04KT P6SM SCT007 SCT200
      TEMPO 2612/2615 5SM BR BKN006
     FM262000 22009KT P6SM SCT150
     FM270300 VRB05KT P6SM SKC
     FM271100 VRB04KT P6SM BKN007=



000
FTUS46 KSGX 261124
TAFCRQ
TAF
KCRQ 261124Z 2612/2712 VRB04KT 5SM BR BKN004
     FM261630 22005KT P6SM SCT007 SCT200
     FM262000 25008KT P6SM SCT100 SCT150
     FM270200 VRB05KT P6SM SKC
     FM270800 VRB04KT P6SM BKN007=



000
FTUS46 KSGX 261124
TAFTRM
TAF
KTRM 261124Z 2612/2712 VRB05KT P6SM BKN200
     FM261800 11010KT P6SM SCT100 SCT150
     FM270400 33007KT P6SM SKC=



000
FTUS46 KSGX 261124
TAFPSP
TAF
KPSP 261124Z 2612/2712 VRB05KT P6SM BKN200
     FM261800 11008KT P6SM VCTS SCT100CB SCT150
     FM270200 33009KT P6SM SCT150
     FM270600 VRB05KT P6SM SKC=



000
FTUS46 KSGX 261025 AAA
TAFCRQ
TAF AMD
KCRQ 261025Z 2610/2706 VRB03KT 5SM BR SCT003 BKN009
      TEMPO 2610/2614 3SM BR BKN003
     FM261600 VRB03KT P6SM SCT010 SCT200
     FM261900 25008KT P6SM SCT100 SCT150
     FM270200 VRB03KT P6SM FEW008 SCT200=



000
FTUS46 KSGX 261025 AAA
TAFCRQ
TAF AMD
KCRQ 261025Z 2610/2706 VRB03KT 5SM BR SCT003 BKN009
      TEMPO 2610/2614 3SM BR BKN003
     FM261600 VRB03KT P6SM SCT010 SCT200
     FM261900 25008KT P6SM SCT100 SCT150
     FM270200 VRB03KT P6SM FEW008 SCT200=



000
FTUS46 KSGX 261023 AAB
TAFSAN
TAF AMD
KSAN 261023Z 2610/2712 VRB04KT P6SM BKN008
      TEMPO 2610/2614 SCT008 SCT200
     FM261600 VRB04KT P6SM SCT010 SCT200
     FM262000 28009KT P6SM SCT100 SCT150
     FM270200 VRB05KT P6SM FEW010 SCT200
     FM271030 VRB04KT 6SM BR BKN007=



000
FTUS46 KSGX 261023 AAB
TAFSAN
TAF AMD
KSAN 261023Z 2610/2712 VRB04KT P6SM BKN008
      TEMPO 2610/2614 SCT008 SCT200
     FM261600 VRB04KT P6SM SCT010 SCT200
     FM262000 28009KT P6SM SCT100 SCT150
     FM270200 VRB05KT P6SM FEW010 SCT200
     FM271030 VRB04KT 6SM BR BKN007=



000
FTUS46 KSGX 260911 AAA
TAFSAN
TAF AMD
KSAN 260911Z 2609/2712 VRB04KT P6SM SCT200
      TEMPO 2612/2615 BKN010
     FM262000 29009KT P6SM SCT150
     FM270200 VRB05KT P6SM FEW010 SCT200
     FM271030 VRB04KT 6SM BR BKN007=



000
FTUS46 KSGX 260520
TAFSAN
TAF
KSAN 260520Z 2606/2712 VRB04KT P6SM FEW010 SCT150 BKN200
      TEMPO 2612/2615 BKN008
     FM262000 29009KT P6SM BKN150
     FM270200 VRB05KT P6SM FEW010 SCT200
     FM271030 VRB04KT 6SM BR BKN007=



000
FTUS46 KSGX 260520
TAFSAN
TAF
KSAN 260520Z 2606/2712 VRB04KT P6SM FEW010 SCT150 BKN200
      TEMPO 2612/2615 BKN008
     FM262000 29009KT P6SM BKN150
     FM270200 VRB05KT P6SM FEW010 SCT200
     FM271030 VRB04KT 6SM BR BKN007=



000
FTUS46 KSGX 260520
TAFSNA
TAF
KSNA 260520Z 2606/2706 VRB03KT P6SM FEW010 BKN150
     FM261900 22008KT P6SM FEW080 BKN150
     FM270200 VRB04KT P6SM SCT200=



000
FTUS46 KSGX 260520
TAFCRQ
TAF
KCRQ 260520Z 2606/2706 VRB03KT P6SM FEW009 BKN150
      TEMPO 2611/2615 6SM BR BKN007
     FM261900 25008KT P6SM BKN150
     FM270200 VRB03KT P6SM FEW008 SCT200=



000
FTUS46 KSGX 260520
TAFTRM
TAF
KTRM 260520Z 2606/2706 VRB05KT P6SM SCT100 BKN150
     FM261800 14009KT P6SM VCSH SCT100 BKN150
     FM270400 33008KT P6SM SCT200=



000
FTUS46 KSGX 260520
TAFPSP
TAF
KPSP 260520Z 2606/2706 VRB06KT P6SM SCT100 BKN150
     FM261900 11008KT P6SM VCSH SCT100 BKN150
     FM270100 33009KT P6SM SCT200=



000
FTUS46 KSGX 260520
TAFONT
TAF
KONT 260520Z 2606/2712 VRB04KT P6SM BKN150
     FM262000 26011KT P6SM SCT080 BKN150
     FM270400 VRB05KT P6SM SCT200=



000
FTUS46 KSGX 260520
TAFSNA
TAF
KSNA 260520Z 2606/2706 VRB03KT P6SM FEW010 BKN150
     FM261900 22008KT P6SM FEW080 BKN150
     FM270200 VRB04KT P6SM SCT200=



000
FTUS46 KSGX 260520
TAFPSP
TAF
KPSP 260520Z 2606/2706 VRB06KT P6SM SCT100 BKN150
     FM261900 11008KT P6SM VCSH SCT100 BKN150
     FM270100 33009KT P6SM SCT200=



000
FTUS46 KSGX 260520
TAFCRQ
TAF
KCRQ 260520Z 2606/2706 VRB03KT P6SM FEW009 BKN150
      TEMPO 2611/2615 6SM BR BKN007
     FM261900 25008KT P6SM BKN150
     FM270200 VRB03KT P6SM FEW008 SCT200=



000
FTUS46 KSGX 260520
TAFONT
TAF
KONT 260520Z 2606/2712 VRB04KT P6SM BKN150
     FM262000 26011KT P6SM SCT080 BKN150
     FM270400 VRB05KT P6SM SCT200=



000
FTUS46 KSGX 260520
TAFTRM
TAF
KTRM 260520Z 2606/2706 VRB05KT P6SM SCT100 BKN150
     FM261800 14009KT P6SM VCSH SCT100 BKN150
     FM270400 33008KT P6SM SCT200=



000
FTUS46 KSGX 260259 AAA
TAFSAN
TAF AMD
KSAN 260259Z 2603/2706 VRB05KT P6SM FEW010 SCT150 BKN200
      TEMPO 2611/2614 BKN008
     FM262000 29009KT P6SM SCT150
     FM270100 VRB05KT P6SM FEW010 SCT150=



000
FTUS46 KSGX 260259 AAA
TAFSAN
TAF AMD
KSAN 260259Z 2603/2706 VRB05KT P6SM FEW010 SCT150 BKN200
      TEMPO 2611/2614 BKN008
     FM262000 29009KT P6SM SCT150
     FM270100 VRB05KT P6SM FEW010 SCT150=



000
FTUS46 KSGX 252320
TAFSNA
TAF
KSNA 252320Z 2600/2624 21007KT P6SM FEW050 BKN150
     FM260200 VRB03KT P6SM FEW010 BKN150
     FM261900 22008KT P6SM SCT150=



000
FTUS46 KSGX 252320
TAFSAN
TAF
KSAN 252320Z 2600/2706 30006KT P6SM VCSH FEW010 BKN100
     FM260300 VRB04KT P6SM SCT010 BKN150
      TEMPO 2611/2614 BKN008
     FM262000 29009KT P6SM SCT150
     FM270100 VRB05KT P6SM FEW010 SCT150=



000
FTUS46 KSGX 252320
TAFTRM
TAF
KTRM 252320Z 2600/2624 14008KT P6SM VCSH OVC150
     FM260300 VRB06KT P6SM SCT100 BKN150
     FM261800 14009KT P6SM VCSH SCT100 BKN150=



000
FTUS46 KSGX 252320
TAFPSP
TAF
KPSP 252320Z 2600/2624 13008KT P6SM VCSH OVC150
     FM260300 VRB06KT P6SM SCT100 BKN150
     FM261900 11008KT P6SM VCSH SCT100 BKN150=



000
FTUS46 KSGX 252320
TAFONT
TAF
KONT 252320Z 2600/2706 26010KT P6SM BKN150
     FM260300 VRB05KT P6SM BKN150
     FM262000 26011KT P6SM SCT080 SCT150
     FM270400 VRB05KT P6SM SCT150=



000
FTUS46 KSGX 252320
TAFCRQ
TAF
KCRQ 252320Z 2600/2624 VRB04KT P6SM VCSH BKN100
     FM260300 VRB03KT P6SM SCT009 BKN150
      TEMPO 2610/2614 BKN007
     FM261900 25008KT P6SM SCT150=



000
FTUS46 KSGX 252320
TAFPSP
TAF
KPSP 252320Z 2600/2624 13008KT P6SM VCSH OVC150
     FM260300 VRB06KT P6SM SCT100 BKN150
     FM261900 11008KT P6SM VCSH SCT100 BKN150=



000
FTUS46 KSGX 252320
TAFSNA
TAF
KSNA 252320Z 2600/2624 21007KT P6SM FEW050 BKN150
     FM260200 VRB03KT P6SM FEW010 BKN150
     FM261900 22008KT P6SM SCT150=



000
FTUS46 KSGX 252320
TAFSAN
TAF
KSAN 252320Z 2600/2706 30006KT P6SM VCSH FEW010 BKN100
     FM260300 VRB04KT P6SM SCT010 BKN150
      TEMPO 2611/2614 BKN008
     FM262000 29009KT P6SM SCT150
     FM270100 VRB05KT P6SM FEW010 SCT150=



000
FTUS46 KSGX 252320
TAFCRQ
TAF
KCRQ 252320Z 2600/2624 VRB04KT P6SM VCSH BKN100
     FM260300 VRB03KT P6SM SCT009 BKN150
      TEMPO 2610/2614 BKN007
     FM261900 25008KT P6SM SCT150=



000
FTUS46 KSGX 252320
TAFTRM
TAF
KTRM 252320Z 2600/2624 14008KT P6SM VCSH OVC150
     FM260300 VRB06KT P6SM SCT100 BKN150
     FM261800 14009KT P6SM VCSH SCT100 BKN150=



000
FTUS46 KSGX 252320
TAFONT
TAF
KONT 252320Z 2600/2706 26010KT P6SM BKN150
     FM260300 VRB05KT P6SM BKN150
     FM262000 26011KT P6SM SCT080 SCT150
     FM270400 VRB05KT P6SM SCT150=



000
FTUS46 KSGX 252050 AAB
TAFSAN
TAF AMD
KSAN 252050Z 2521/2624 20009KT P6SM SCT010 BKN090
     FM260200 VRB04KT P6SM SCT100 SCT150
      TEMPO 2606/2610 BKN010
     FM261000 VRB03KT P6SM BKN009
     FM261600 VRB03KT P6SM SCT010 SCT150
     FM262000 27010KT P6SM SCT200=



000
FTUS46 KSGX 251915 AAA
TAFCRQ
TAF AMD
KCRQ 251915Z 2519/2618 VRB05KT P6SM BKN009 BKN015 OVC120
     FM252100 23009KT P6SM SCT015 BKN120
     FM260200 VRB04KT P6SM SCT100 SCT150
      TEMPO 2606/2610 BKN008
     FM261000 VRB03KT 5SM BR BKN006
     FM261700 VRB04KT P6SM SCT010 SCT200=



000
FTUS46 KSGX 251912 AAA
TAFSAN
TAF AMD
KSAN 251912Z 2519/2624 18010KT P6SM BKN008 BKN090
     FM252100 20010KT P6SM SCT010 BKN090
     FM260200 VRB04KT P6SM SCT100 SCT150
      TEMPO 2606/2610 BKN010
     FM261000 VRB03KT P6SM BKN009
     FM261600 VRB03KT P6SM SCT010 SCT150
     FM262000 27010KT P6SM SCT200=



000
FTUS46 KSGX 251912 AAA
TAFSAN
TAF AMD
KSAN 251912Z 2519/2624 18010KT P6SM BKN008 BKN090
     FM252100 20010KT P6SM SCT010 BKN090
     FM260200 VRB04KT P6SM SCT100 SCT150
      TEMPO 2606/2610 BKN010
     FM261000 VRB03KT P6SM BKN009
     FM261600 VRB03KT P6SM SCT010 SCT150
     FM262000 27010KT P6SM SCT200=



000
FTUS46 KSGX 251758 CCA
TAFPSP
TAF COR
KPSP 251758Z 2518/2618 11011KT P6SM VCSH SCT090 BKN120
     FM260300 VRB06KT P6SM SCT100 SCT150=



000
FTUS46 KSGX 251758 CCA
TAFPSP
TAF COR
KPSP 251758Z 2518/2618 11011KT P6SM VCSH SCT090 BKN120
     FM260300 VRB06KT P6SM SCT100 SCT150=



000
FTUS46 KSGX 251743 CCA
TAFSAN
TAF COR
KSAN 251743Z 2518/2624 VRB05KT P6SM VCTS SCT010 BKN150CB
     FM251900 27009KT P6SM FEW015 BKN120
     FM260200 VRB04KT P6SM SCT100 SCT150
      TEMPO 2606/2610 BKN010
     FM261000 VRB03KT P6SM BKN009
     FM261600 VRB03KT P6SM SCT010 SCT150
     FM262000 27010KT P6SM SCT200=



000
FTUS46 KSGX 251743 CCA
TAFSAN
TAF COR
KSAN 251743Z 2518/2624 VRB05KT P6SM VCTS SCT010 BKN150CB
     FM251900 27009KT P6SM FEW015 BKN120
     FM260200 VRB04KT P6SM SCT100 SCT150
      TEMPO 2606/2610 BKN010
     FM261000 VRB03KT P6SM BKN009
     FM261600 VRB03KT P6SM SCT010 SCT150
     FM262000 27010KT P6SM SCT200=



000
FTUS46 KSGX 251720
TAFSAN
TAF
KSAN 251720Z 2518/2624 VRB05KT P6SM VCTS BKN010 BKN150CB
     FM251900 27009KT P6SM FEW015 BKN120
     FM260200 VRB04KT P6SM SCT100 SCT150
      TEMPO 2606/2610 BKN010
     FM261000 VRB03KT P6SM BKN009
     FM261600 VRB03KT P6SM SCT010 SCT150
     FM262000 27010KT P6SM SCT200=



000
FTUS46 KSGX 251720
TAFONT
TAF
KONT 251720Z 2518/2624 VRB04KT P6SM VCSH SCT090 BKN150
     FM252100 26011KT P6SM SCT090 BKN120
     FM260400 VRB05KT P6SM SCT090 BKN150
     FM262030 26011KT P6SM BKN200=



000
FTUS46 KSGX 251720
TAFSAN
TAF
KSAN 251720Z 2518/2624 VRB05KT P6SM VCTS BKN010 BKN150CB
     FM251900 27009KT P6SM FEW015 BKN120
     FM260200 VRB04KT P6SM SCT100 SCT150
      TEMPO 2606/2610 BKN010
     FM261000 VRB03KT P6SM BKN009
     FM261600 VRB03KT P6SM SCT010 SCT150
     FM262000 27010KT P6SM SCT200=



000
FTUS46 KSGX 251720
TAFPSP
TAF
KPSP 251720Z 2518/2618 VRB05KT P6SM BKN150
     FM251900 11008KT P6SM VCSH SCT090 BKN120
     FM260300 VRB06KT P6SM SCT100 SCT150=



000
FTUS46 KSGX 251720
TAFSNA
TAF
KSNA 251720Z 2518/2618 VRB04KT P6SM VCSH FEW012 BKN150
     FM252000 21008KT P6SM BKN120
     FM260200 VRB05KT P6SM SCT100 SCT150
     FM260600 VRB04KT 5SM BR OVC008
     FM261600 VRB04KT 6SM HZ SCT010 SCT200=



000
FTUS46 KSGX 251720
TAFCRQ
TAF
KCRQ 251720Z 2518/2618 VRB04KT P6SM VCTS FEW009 BKN150CB
     FM251900 24008KT P6SM BKN120
     FM260200 VRB04KT P6SM SCT100 SCT150
      TEMPO 2606/2610 BKN008
     FM261000 VRB03KT 5SM BR BKN006
     FM261700 VRB04KT P6SM SCT010 SCT200=



000
FTUS46 KSGX 251720
TAFTRM
TAF
KTRM 251720Z 2518/2618 14011G18KT P6SM SCT090 BKN120
     FM260300 VRB06KT P6SM SCT100 SCT150=



000
FTUS46 KSGX 251720
TAFPSP
TAF
KPSP 251720Z 2518/2618 VRB05KT P6SM BKN150
     FM251900 11008KT P6SM VCSH SCT090 BKN120
     FM260300 VRB06KT P6SM SCT100 SCT150=



000
FTUS46 KSGX 251720
TAFSNA
TAF
KSNA 251720Z 2518/2618 VRB04KT P6SM VCSH FEW012 BKN150
     FM252000 21008KT P6SM BKN120
     FM260200 VRB05KT P6SM SCT100 SCT150
     FM260600 VRB04KT 5SM BR OVC008
     FM261600 VRB04KT 6SM HZ SCT010 SCT200=



000
FTUS46 KSGX 251720
TAFONT
TAF
KONT 251720Z 2518/2624 VRB04KT P6SM VCSH SCT090 BKN150
     FM252100 26011KT P6SM SCT090 BKN120
     FM260400 VRB05KT P6SM SCT090 BKN150
     FM262030 26011KT P6SM BKN200=



000
FTUS46 KSGX 251720
TAFTRM
TAF
KTRM 251720Z 2518/2618 14011G18KT P6SM SCT090 BKN120
     FM260300 VRB06KT P6SM SCT100 SCT150=



000
FTUS46 KSGX 251720
TAFCRQ
TAF
KCRQ 251720Z 2518/2618 VRB04KT P6SM VCTS FEW009 BKN150CB
     FM251900 24008KT P6SM BKN120
     FM260200 VRB04KT P6SM SCT100 SCT150
      TEMPO 2606/2610 BKN008
     FM261000 VRB03KT 5SM BR BKN006
     FM261700 VRB04KT P6SM SCT010 SCT200=



000
FTUS46 KSGX 251449 AAA
TAFSAN
TAF AMD
KSAN 251449Z 2515/2618 VRB04KT P6SM BKN010
     FM251600 VRB05KT P6SM SCT015 BKN150
     FM251900 27009KT P6SM BKN120
     FM260200 VRB04KT P6SM SCT100 SCT150
      TEMPO 2607/2611 BKN010
     FM261100 VRB03KT P6SM BKN009
     FM261600 VRB03KT P6SM SCT010 SCT150=



000
FTUS46 KSGX 251449 AAA
TAFSAN
TAF AMD
KSAN 251449Z 2515/2618 VRB04KT P6SM BKN010
     FM251600 VRB05KT P6SM SCT015 BKN150
     FM251900 27009KT P6SM BKN120
     FM260200 VRB04KT P6SM SCT100 SCT150
      TEMPO 2607/2611 BKN010
     FM261100 VRB03KT P6SM BKN009
     FM261600 VRB03KT P6SM SCT010 SCT150=



000
FTUS46 KSGX 251124
TAFSNA
TAF
KSNA 251124Z 2512/2612 VRB04KT P6SM SCT010 BKN150
      TEMPO 2512/2515 BKN009
     FM251900 21008KT P6SM BKN120
     FM260200 VRB05KT P6SM SCT100 SCT150=



000
FTUS46 KSGX 251124
TAFPSP
TAF
KPSP 251124Z 2512/2612 VRB05KT P6SM BKN150
     FM251900 10008KT P6SM VCSH SCT090 BKN120
     FM260300 33006KT P6SM SCT100 SCT150=



000
FTUS46 KSGX 251124
TAFONT
TAF
KONT 251124Z 2512/2618 VRB04KT P6SM BKN150
     FM252100 26011KT P6SM SCT090 BKN120
     FM260400 VRB05KT P6SM SCT100 BKN150=



000
FTUS46 KSGX 251124
TAFSAN
TAF
KSAN 251124Z 2512/2618 VRB04KT P6SM BKN010
     FM251600 VRB05KT P6SM SCT015 BKN150
     FM251900 27009KT P6SM BKN120
     FM260200 VRB04KT P6SM SCT100 SCT150
      TEMPO 2607/2611 BKN010
     FM261100 VRB03KT P6SM BKN009
     FM261600 VRB03KT P6SM SCT010 SCT150=



000
FTUS46 KSGX 251124
TAFTRM
TAF
KTRM 251124Z 2512/2612 VRB05KT P6SM BKN150
     FM251700 14010KT P6SM SCT090 BKN120
     FM260300 VRB06KT P6SM SCT100 SCT150=



000
FTUS46 KSGX 251124
TAFCRQ
TAF
KCRQ 251124Z 2512/2612 VRB04KT P6SM SCT008 BKN150
      TEMPO 2512/2516 BKN008
     FM251900 24008KT P6SM BKN120
     FM260200 VRB04KT P6SM SCT100 SCT150
      TEMPO 2607/2611 BKN008
     FM261100 VRB03KT P6SM BKN006=



000
FTUS46 KSGX 251124
TAFSAN
TAF
KSAN 251124Z 2512/2618 VRB04KT P6SM BKN010
     FM251600 VRB05KT P6SM SCT015 BKN150
     FM251900 27009KT P6SM BKN120
     FM260200 VRB04KT P6SM SCT100 SCT150
      TEMPO 2607/2611 BKN010
     FM261100 VRB03KT P6SM BKN009
     FM261600 VRB03KT P6SM SCT010 SCT150=



000
FTUS46 KSGX 251124
TAFONT
TAF
KONT 251124Z 2512/2618 VRB04KT P6SM BKN150
     FM252100 26011KT P6SM SCT090 BKN120
     FM260400 VRB05KT P6SM SCT100 BKN150=



000
FTUS46 KSGX 251124
TAFPSP
TAF
KPSP 251124Z 2512/2612 VRB05KT P6SM BKN150
     FM251900 10008KT P6SM VCSH SCT090 BKN120
     FM260300 33006KT P6SM SCT100 SCT150=



000
FTUS46 KSGX 251124
TAFTRM
TAF
KTRM 251124Z 2512/2612 VRB05KT P6SM BKN150
     FM251700 14010KT P6SM SCT090 BKN120
     FM260300 VRB06KT P6SM SCT100 SCT150=



000
FTUS46 KSGX 251124
TAFCRQ
TAF
KCRQ 251124Z 2512/2612 VRB04KT P6SM SCT008 BKN150
      TEMPO 2512/2516 BKN008
     FM251900 24008KT P6SM BKN120
     FM260200 VRB04KT P6SM SCT100 SCT150
      TEMPO 2607/2611 BKN008
     FM261100 VRB03KT P6SM BKN006=



000
FTUS46 KSGX 251124
TAFSNA
TAF
KSNA 251124Z 2512/2612 VRB04KT P6SM SCT010 BKN150
      TEMPO 2512/2515 BKN009
     FM251900 21008KT P6SM BKN120
     FM260200 VRB05KT P6SM SCT100 SCT150=



000
FTUS46 KSGX 250859 AAA
TAFSAN
TAF AMD
KSAN 250859Z 2509/2612 VRB03KT P6SM BKN012
     FM251600 VRB05KT P6SM SCT015 BKN150
     FM252100 26008KT P6SM BKN150
     FM260200 VRB04KT P6SM FEW010 BKN150
     FM260900 VRB03KT P6SM BKN010=



000
FTUS46 KSGX 250837 AAA
TAFCRQ
TAF AMD
KCRQ 250837Z 2509/2606 VRB04KT P6SM SCT008 BKN200
      TEMPO 2510/2514 VRB04KT P6SM BKN008
     FM251900 24007KT P6SM BKN150
     FM260200 VRB04KT P6SM FEW008 BKN200=



000
FTUS46 KSGX 250837 AAA
TAFCRQ
TAF AMD
KCRQ 250837Z 2509/2606 VRB04KT P6SM SCT008 BKN200
      TEMPO 2510/2514 VRB04KT P6SM BKN008
     FM251900 24007KT P6SM BKN150
     FM260200 VRB04KT P6SM FEW008 BKN200=



000
FTUS46 KSGX 250835 AAA
TAFSNA
TAF AMD
KSNA 250835Z 2509/2606 VRB04KT P6SM SCT010 BKN200
      TEMPO 2511/2515 BKN009
     FM251900 21008KT P6SM SCT100 BKN150
     FM260200 VRB05KT P6SM SCT150 SCT200=



000
FTUS46 KSGX 250835 AAA
TAFSNA
TAF AMD
KSNA 250835Z 2509/2606 VRB04KT P6SM SCT010 BKN200
      TEMPO 2511/2515 BKN009
     FM251900 21008KT P6SM SCT100 BKN150
     FM260200 VRB05KT P6SM SCT150 SCT200=



000
FTUS46 KSGX 250520
TAFCRQ
TAF
KCRQ 250520Z 2506/2606 VRB04KT P6SM SCT007 SCT150
     FM250630 VRB04KT P6SM BKN007
     FM251600 VRB04KT P6SM SCT010 BKN150
     FM252100 24007KT P6SM BKN150
     FM260200 VRB04KT P6SM FEW008 BKN200=



000
FTUS46 KSGX 250520
TAFSAN
TAF
KSAN 250520Z 2506/2612 27005KT P6SM FEW015 SCT150
     FM250700 VRB04KT P6SM BKN010
     FM251600 VRB05KT P6SM SCT012 BKN150
     FM252100 26008KT P6SM BKN150
     FM260200 VRB04KT P6SM FEW010 BKN150
     FM260900 VRB03KT P6SM BKN010=



000
FTUS46 KSGX 250520
TAFSNA
TAF
KSNA 250520Z 2506/2606 VRB04KT P6SM SCT010 SCT200
     FM250800 VRB03KT P6SM BKN008
     FM251530 VRB04KT P6SM FEW010 BKN150
     FM252100 21008KT P6SM BKN150
     FM260200 VRB05KT P6SM SCT150 BKN200=



000
FTUS46 KSGX 250520
TAFPSP
TAF
KPSP 250520Z 2506/2606 VRB05KT P6SM SCT150 BKN200
     FM251800 10009KT P6SM VCSH SCT100 BKN150
     FM260300 VRB05KT P6SM SCT150 BKN200=



000
FTUS46 KSGX 250520
TAFTRM
TAF
KTRM 250520Z 2506/2606 VRB05KT P6SM SCT150 BKN200
     FM251400 14008KT P6SM BKN150 BKN200
     FM251700 14010G18KT P6SM VCSH BKN150
     FM260100 VRB05KT P6SM SCT150 BKN200=



000
FTUS46 KSGX 250520
TAFTRM
TAF
KTRM 250520Z 2506/2606 VRB05KT P6SM SCT150 BKN200
     FM251400 14008KT P6SM BKN150 BKN200
     FM251700 14010G18KT P6SM VCSH BKN150
     FM260100 VRB05KT P6SM SCT150 BKN200=



000
FTUS46 KSGX 250520
TAFSNA
TAF
KSNA 250520Z 2506/2606 VRB04KT P6SM SCT010 SCT200
     FM250800 VRB03KT P6SM BKN008
     FM251530 VRB04KT P6SM FEW010 BKN150
     FM252100 21008KT P6SM BKN150
     FM260200 VRB05KT P6SM SCT150 BKN200=



000
FTUS46 KSGX 250520
TAFONT
TAF
KONT 250520Z 2506/2612 VRB05KT P6SM SCT100 BKN200
     FM252100 26011KT P6SM SCT080 BKN150
     FM260400 VRB05KT P6SM SCT150 BKN200=



000
FTUS46 KSGX 250520
TAFONT
TAF
KONT 250520Z 2506/2612 VRB05KT P6SM SCT100 BKN200
     FM252100 26011KT P6SM SCT080 BKN150
     FM260400 VRB05KT P6SM SCT150 BKN200=



000
FTUS46 KSGX 250520
TAFSAN
TAF
KSAN 250520Z 2506/2612 27005KT P6SM FEW015 SCT150
     FM250700 VRB04KT P6SM BKN010
     FM251600 VRB05KT P6SM SCT012 BKN150
     FM252100 26008KT P6SM BKN150
     FM260200 VRB04KT P6SM FEW010 BKN150
     FM260900 VRB03KT P6SM BKN010=



000
FTUS46 KSGX 250520
TAFCRQ
TAF
KCRQ 250520Z 2506/2606 VRB04KT P6SM SCT007 SCT150
     FM250630 VRB04KT P6SM BKN007
     FM251600 VRB04KT P6SM SCT010 BKN150
     FM252100 24007KT P6SM BKN150
     FM260200 VRB04KT P6SM FEW008 BKN200=



000
FTUS46 KSGX 250520
TAFPSP
TAF
KPSP 250520Z 2506/2606 VRB05KT P6SM SCT150 BKN200
     FM251800 10009KT P6SM VCSH SCT100 BKN150
     FM260300 VRB05KT P6SM SCT150 BKN200=



    US Dept of Commerce
    National Oceanic and Atmospheric Administration
    National Weather Service
    1325 East West Highway
    Silver Spring, MD 20910
    Page Author: NWS Internet Services Team
Disclaimer
Information Quality
Credits
Glossary
Privacy Policy
Freedom of Information Act (FOIA)
About Us
Career Opportunities